createdAt,value
2019-04-04T00:01:23.610Z,99.90
2019-04-04T00:03:54.848Z,99.90
2019-04-04T00:06:27.722Z,99.90
2019-04-04T00:09:01.694Z,99.90
2019-04-04T00:11:35.078Z,99.90
2019-04-04T00:14:15.209Z,99.90
2019-04-04T00:17:09.335Z,99.90
2019-04-04T00:19:45.679Z,99.90
2019-04-04T00:22:28.857Z,99.90
2019-04-04T00:25:00.076Z,99.90
2019-04-04T00:27:31.277Z,99.90
2019-04-04T00:30:02.437Z,99.90
2019-04-04T00:32:33.692Z,99.90
2019-04-04T00:35:05.078Z,99.90
2019-04-04T00:37:36.573Z,99.90
2019-04-04T00:40:10.785Z,99.90
2019-04-04T00:42:40.915Z,99.90
2019-04-04T00:45:13.522Z,99.90
2019-04-04T00:47:44.832Z,99.90
2019-04-04T00:50:16.090Z,99.90
2019-04-04T00:52:47.517Z,99.90
2019-04-04T00:55:18.887Z,99.90
2019-04-04T00:57:50.747Z,99.90
2019-04-04T01:00:23.824Z,99.90
2019-04-04T01:02:54.877Z,99.90
2019-04-04T01:05:26.205Z,99.90
2019-04-04T01:07:57.455Z,99.90
2019-04-04T01:10:28.691Z,99.90
2019-04-04T01:12:59.915Z,99.90
2019-04-04T01:15:31.870Z,99.90
2019-04-04T01:18:03.984Z,99.90
2019-04-04T01:20:36.060Z,99.90
2019-04-04T01:23:07.348Z,99.90
2019-04-04T01:25:38.679Z,99.90
2019-04-04T01:28:09.924Z,99.90
2019-04-04T01:30:41.695Z,99.90
2019-04-04T01:33:14.048Z,99.90
2019-04-04T01:35:45.290Z,99.90
2019-04-04T01:38:16.562Z,99.90
2019-04-04T01:40:47.772Z,99.90
2019-04-04T01:43:18.995Z,99.90
2019-04-04T01:45:50.199Z,99.90
2019-04-04T01:48:21.383Z,99.90
2019-04-04T01:50:53.738Z,99.90
2019-04-04T01:53:25.526Z,99.90
2019-04-04T01:55:56.730Z,99.90
2019-04-04T01:58:27.932Z,99.90
2019-04-04T02:00:59.166Z,99.90
2019-04-04T02:03:30.322Z,99.90
2019-04-04T02:06:01.471Z,99.90
2019-04-04T02:08:32.576Z,99.90
2019-04-04T02:11:05.283Z,99.90
2019-04-04T02:13:36.454Z,99.90
2019-04-04T02:16:07.699Z,99.90
2019-04-04T02:18:38.783Z,99.90
2019-04-04T02:21:09.932Z,99.90
2019-04-04T02:23:41.103Z,99.90
2019-04-04T02:26:12.360Z,99.90
2019-04-04T02:28:43.413Z,99.90
2019-04-04T02:31:14.803Z,99.90
2019-04-04T02:33:45.879Z,99.90
2019-04-04T02:36:17.504Z,99.90
2019-04-04T02:39:07.717Z,99.90
2019-04-04T02:41:39.016Z,99.90
2019-04-04T02:44:10.123Z,99.90
2019-04-04T02:46:44.266Z,99.90
2019-04-04T02:49:49.308Z,99.90
2019-04-04T02:52:29.560Z,99.90
2019-04-04T02:55:00.681Z,99.90
2019-04-04T02:57:31.810Z,99.90
2019-04-04T03:00:03.099Z,99.90
2019-04-04T03:02:36.160Z,99.90
2019-04-04T03:05:07.174Z,99.90
2019-04-04T03:07:38.304Z,99.90
2019-04-04T03:10:09.806Z,99.90
2019-04-04T03:12:41.014Z,99.90
2019-04-04T03:15:24.595Z,99.90
2019-04-04T03:17:55.668Z,99.90
2019-04-04T03:20:26.794Z,99.90
2019-04-04T03:23:00.613Z,99.90
2019-04-04T03:25:32.135Z,99.90
2019-04-04T03:28:03.313Z,99.90
2019-04-04T03:30:38.686Z,99.90
2019-04-04T03:33:09.778Z,99.90
2019-04-04T03:35:41.015Z,99.90
2019-04-04T03:38:13.544Z,99.90
2019-04-04T03:41:00.310Z,99.90
2019-04-04T03:43:31.327Z,99.90
2019-04-04T03:46:05.504Z,99.90
2019-04-04T03:48:36.647Z,99.90
2019-04-04T03:51:10.678Z,99.90
2019-04-04T03:53:49.314Z,99.90
2019-04-04T03:56:19.734Z,99.90
2019-04-04T03:58:50.840Z,99.90
2019-04-04T04:01:21.964Z,99.90
2019-04-04T04:03:55.428Z,99.90
2019-04-04T04:06:26.006Z,99.90
2019-04-04T04:08:57.071Z,99.90
2019-04-04T04:11:28.105Z,99.90
2019-04-04T04:13:59.263Z,99.90
2019-04-04T04:16:36.026Z,99.90
2019-04-04T04:19:06.201Z,99.90
2019-04-04T04:21:42.823Z,99.90
2019-04-04T04:24:11.661Z,99.90
2019-04-04T04:26:43.986Z,99.90
2019-04-04T04:29:15.145Z,99.90
2019-04-04T04:31:49.200Z,99.90
2019-04-04T04:34:18.898Z,99.90
2019-04-04T04:36:49.977Z,99.90
2019-04-04T04:39:21.114Z,99.90
2019-04-04T04:41:54.178Z,99.90
2019-04-04T04:44:24.846Z,99.90
2019-04-04T04:46:56.754Z,99.90
2019-04-04T04:49:28.038Z,99.90
2019-04-04T04:52:17.386Z,99.90
2019-04-04T04:54:48.510Z,99.90
2019-04-04T04:57:29.578Z,99.90
2019-04-04T04:59:54.382Z,99.90
2019-04-04T05:02:25.596Z,99.90
2019-04-04T05:05:15.570Z,99.90
2019-04-04T05:07:55.901Z,99.90
2019-04-04T05:10:27.035Z,99.90
2019-04-04T05:12:58.852Z,99.90
2019-04-04T05:15:30.415Z,99.90
2019-04-04T05:18:02.620Z,99.90
2019-04-04T05:20:33.721Z,99.90
2019-04-04T05:23:04.819Z,99.90
2019-04-04T05:25:35.988Z,99.90
2019-04-04T05:28:10.516Z,99.90
2019-04-04T05:30:39.961Z,99.90
2019-04-04T05:33:15.595Z,99.90
2019-04-04T05:35:46.666Z,99.90
2019-04-04T05:38:17.759Z,99.90
2019-04-04T05:40:48.849Z,99.90
2019-04-04T05:43:20.038Z,99.90
2019-04-04T05:45:51.235Z,99.90
2019-04-04T05:48:39.299Z,99.90
2019-04-04T05:51:10.446Z,99.90
2019-04-04T05:53:41.500Z,99.90
2019-04-04T05:56:14.847Z,99.90
2019-04-04T05:58:45.377Z,99.90
2019-04-04T06:01:16.990Z,99.90
2019-04-04T06:03:48.138Z,99.90
2019-04-04T06:06:19.261Z,99.90
2019-04-04T06:09:18.186Z,99.90
2019-04-04T06:11:50.931Z,99.90
2019-04-04T06:14:22.078Z,99.90
2019-04-04T06:16:53.200Z,99.90
2019-04-04T06:19:24.324Z,99.90
2019-04-04T06:22:13.613Z,99.90
2019-04-04T06:24:53.830Z,99.90
2019-04-04T06:27:24.871Z,99.90
2019-04-04T06:29:55.954Z,99.90
2019-04-04T06:32:27.015Z,99.90
2019-04-04T06:35:07.327Z,99.90
2019-04-04T06:37:39.004Z,99.90
2019-04-04T06:40:12.952Z,98.90
2019-04-04T06:42:45.442Z,98.80
2019-04-04T06:45:16.792Z,98.20
2019-04-04T06:47:48.705Z,97.50
2019-04-04T06:50:20.077Z,96.10
2019-04-04T06:52:51.523Z,94.90
2019-04-04T06:55:22.882Z,94.60
2019-04-04T06:57:54.189Z,93.80
2019-04-04T07:00:58.987Z,94.10
2019-04-04T07:03:30.286Z,93.80
2019-04-04T07:06:01.731Z,93.30
2019-04-04T07:08:33.036Z,92.00
2019-04-04T07:11:06.917Z,92.30
2019-04-04T07:13:42.574Z,92.60
2019-04-04T07:16:09.971Z,90.60
2019-04-04T07:18:43.067Z,92.70
2019-04-04T07:21:14.113Z,91.00
2019-04-04T07:23:45.353Z,91.10
2019-04-04T07:26:16.564Z,90.30
2019-04-04T07:31:38.327Z,88.00
2019-04-04T07:34:09.882Z,89.80
2019-04-04T07:36:40.978Z,85.30
2019-04-04T07:39:12.466Z,90.70
2019-04-04T07:41:45.013Z,89.80
2019-04-04T07:44:16.379Z,87.40
2019-04-04T07:46:47.571Z,87.90
2019-04-04T07:49:18.831Z,85.80
2019-04-04T07:51:49.999Z,82.50
2019-04-04T07:54:21.221Z,82.40
2019-04-04T07:56:52.288Z,78.10
2019-04-04T07:59:23.576Z,78.50
2019-04-04T08:01:54.744Z,78.40
2019-04-04T08:04:25.993Z,81.10
2019-04-04T08:06:57.178Z,79.80
2019-04-04T08:09:28.282Z,76.10
2019-04-04T08:11:59.615Z,74.80
2019-04-04T08:14:33.322Z,76.00
2019-04-04T08:17:04.715Z,74.30
2019-04-04T08:19:36.257Z,70.90
2019-04-04T08:22:07.579Z,70.80
2019-04-04T08:24:38.731Z,70.50
2019-04-04T08:27:09.885Z,70.00
2019-04-04T08:29:41.050Z,69.10
2019-04-04T08:32:12.246Z,68.40
2019-04-04T08:34:43.332Z,65.00
2019-04-04T08:37:14.500Z,67.30
2019-04-04T08:39:45.684Z,65.90
2019-04-04T08:42:16.859Z,65.10
2019-04-04T08:44:48.134Z,66.50
2019-04-04T08:47:19.358Z,64.80
2019-04-04T08:49:50.516Z,65.30
2019-04-04T08:52:21.960Z,64.80
2019-04-04T08:54:53.148Z,65.20
2019-04-04T08:57:24.339Z,64.40
2019-04-04T08:59:55.609Z,65.30
2019-04-04T09:02:26.783Z,66.80
2019-04-04T09:05:10.937Z,63.40
2019-04-04T09:07:30.738Z,65.30
2019-04-04T09:10:02.086Z,66.00
2019-04-04T09:12:33.240Z,64.70
2019-04-04T09:15:05.055Z,63.30
2019-04-04T09:17:36.273Z,64.00
2019-04-04T09:20:09.472Z,63.60
2019-04-04T09:22:41.194Z,63.30
2019-04-04T09:25:12.705Z,63.60
2019-04-04T09:27:43.829Z,64.10
2019-04-04T09:30:15.886Z,62.10
2019-04-04T09:32:47.049Z,61.80
2019-04-04T09:35:18.223Z,61.40
2019-04-04T09:37:49.401Z,61.00
2019-04-04T09:40:20.490Z,61.20
2019-04-04T09:42:51.638Z,59.90
2019-04-04T09:45:22.818Z,60.20
2019-04-04T09:47:53.967Z,61.00
2019-04-04T09:50:25.227Z,59.10
2019-04-04T09:52:56.557Z,59.40
2019-04-04T09:55:27.674Z,59.00
2019-04-04T09:58:00.123Z,58.70
2019-04-04T10:00:31.266Z,59.70
2019-04-04T10:03:02.465Z,58.20
2019-04-04T10:05:33.644Z,57.80
2019-04-04T10:08:07.351Z,57.20
2019-04-04T10:10:38.486Z,56.60
2019-04-04T10:13:09.659Z,57.50
2019-04-04T10:15:40.920Z,57.20
2019-04-04T10:18:12.061Z,56.00
2019-04-04T10:20:43.223Z,55.80
2019-04-04T10:23:26.164Z,56.30
2019-04-04T10:25:57.321Z,55.70
2019-04-04T10:28:28.495Z,54.20
2019-04-04T10:30:59.718Z,54.80
2019-04-04T10:33:30.832Z,53.90
2019-04-04T10:36:02.059Z,54.00
2019-04-04T10:38:33.169Z,53.90
2019-04-04T10:41:04.380Z,54.40
2019-04-04T10:43:35.736Z,53.80
2019-04-04T10:46:06.982Z,53.30
2019-04-04T10:48:38.172Z,53.40
2019-04-04T10:51:09.378Z,52.80
2019-04-04T10:53:40.527Z,52.70
2019-04-04T10:56:11.742Z,53.20
2019-04-04T10:58:42.903Z,52.30
2019-04-04T11:01:14.077Z,51.30
2019-04-04T11:03:45.261Z,51.50
2019-04-04T11:06:16.453Z,51.20
2019-04-04T11:08:48.665Z,52.00
2019-04-04T11:11:19.844Z,51.00
2019-04-04T11:13:50.926Z,51.50
2019-04-04T11:16:30.120Z,52.10
2019-04-04T11:18:55.251Z,52.00
2019-04-04T11:21:26.518Z,51.60
2019-04-04T11:23:57.756Z,51.50
2019-04-04T11:26:28.940Z,51.30
2019-04-04T11:29:00.075Z,52.00
2019-04-04T11:31:31.327Z,51.20
2019-04-04T11:34:02.479Z,50.90
2019-04-04T11:36:33.634Z,50.70
2019-04-04T11:39:06.458Z,51.00
2019-04-04T11:41:37.634Z,50.50
2019-04-04T11:44:08.816Z,50.80
2019-04-04T11:46:39.915Z,50.20
2019-04-04T11:49:11.109Z,51.70
2019-04-04T11:51:42.264Z,50.00
2019-04-04T11:54:14.518Z,49.40
2019-04-04T11:56:45.699Z,49.80
2019-04-04T11:59:16.870Z,49.00
2019-04-04T12:01:48.960Z,49.80
2019-04-04T12:04:20.128Z,50.60
2019-04-04T12:06:51.648Z,48.30
2019-04-04T12:09:23.051Z,48.70
2019-04-04T12:11:54.963Z,48.20
2019-04-04T12:14:26.400Z,48.00
2019-04-04T12:16:58.567Z,48.70
2019-04-04T12:19:29.852Z,48.30
2019-04-04T12:22:01.079Z,46.90
2019-04-04T12:24:33.401Z,47.80
2019-04-04T12:27:04.690Z,47.80
2019-04-04T12:29:36.013Z,47.40
2019-04-04T12:32:07.708Z,47.60
2019-04-04T12:34:38.908Z,47.60
2019-04-04T12:37:10.058Z,46.90
2019-04-04T12:39:43.099Z,47.50
2019-04-04T12:42:14.052Z,47.80
2019-04-04T12:44:45.190Z,47.70
2019-04-04T12:47:16.459Z,47.40
2019-04-04T12:49:47.659Z,47.00
2019-04-04T12:52:18.863Z,48.00
2019-04-04T12:54:50.006Z,46.50
2019-04-04T12:57:21.162Z,46.90
2019-04-04T12:59:52.386Z,47.40
2019-04-04T13:02:23.582Z,47.30
2019-04-04T13:04:54.808Z,46.10
2019-04-04T13:07:25.962Z,46.20
2019-04-04T13:09:57.121Z,45.40
2019-04-04T13:12:28.416Z,46.80
2019-04-04T13:14:59.684Z,46.60
2019-04-04T13:17:30.928Z,46.70
2019-04-04T13:20:02.144Z,46.50
2019-04-04T13:22:33.308Z,46.50
2019-04-04T13:25:04.941Z,46.60
2019-04-04T13:27:36.033Z,47.10
2019-04-04T13:30:10.050Z,47.20
2019-04-04T13:32:41.204Z,46.90
2019-04-04T13:35:12.626Z,47.10
2019-04-04T13:37:43.815Z,46.80
2019-04-04T13:40:15.246Z,47.00
2019-04-04T13:42:46.472Z,45.90
2019-04-04T13:45:17.805Z,46.10
2019-04-04T13:47:48.995Z,45.90
2019-04-04T13:50:20.711Z,46.30
2019-04-04T13:52:51.931Z,45.90
2019-04-04T13:55:25.198Z,46.20
2019-04-04T13:57:57.158Z,45.80
2019-04-04T14:00:28.264Z,46.30
2019-04-04T14:02:59.528Z,46.50
2019-04-04T14:05:30.683Z,46.10
2019-04-04T14:08:03.066Z,45.90
2019-04-04T14:10:34.501Z,46.20
2019-04-04T14:13:06.688Z,45.20
2019-04-04T14:15:38.005Z,45.80
2019-04-04T14:18:37.915Z,45.60
2019-04-04T14:21:03.903Z,46.20
2019-04-04T14:23:30.707Z,45.70
2019-04-04T14:26:01.944Z,45.70
2019-04-04T14:28:33.181Z,45.30
2019-04-04T14:31:04.533Z,45.40
2019-04-04T14:33:35.677Z,45.80
2019-04-04T14:36:06.859Z,45.90
2019-04-04T14:38:38.026Z,46.40
2019-04-04T14:41:11.369Z,46.80
2019-04-04T14:43:42.055Z,46.50
2019-04-04T14:46:13.238Z,45.00
2019-04-04T14:48:44.445Z,45.70
2019-04-04T14:51:15.645Z,45.90
2019-04-04T14:53:46.915Z,46.30
2019-04-04T14:56:18.318Z,46.50
2019-04-04T14:58:49.639Z,45.90
2019-04-04T15:01:20.908Z,45.80
2019-04-04T15:03:52.268Z,46.60
2019-04-04T15:06:24.552Z,48.40
2019-04-04T15:08:56.108Z,48.60
2019-04-04T15:11:27.405Z,50.10
2019-04-04T15:13:58.852Z,49.40
2019-04-04T15:16:30.191Z,50.30
2019-04-04T15:19:01.639Z,51.20
2019-04-04T15:21:33.165Z,51.80
2019-04-04T15:24:04.476Z,52.00
2019-04-04T15:26:34.856Z,52.70
2019-04-04T15:29:06.052Z,52.50
2019-04-04T15:31:37.355Z,53.00
2019-04-04T15:34:08.524Z,53.20
2019-04-04T16:16:50.492Z,55.90
2019-04-04T16:19:21.703Z,56.40
2019-04-04T16:21:52.998Z,56.50
2019-04-04T16:24:24.253Z,56.80
2019-04-04T16:26:55.429Z,57.10
2019-04-04T16:29:26.642Z,57.50
2019-04-04T16:32:01.849Z,57.40
2019-04-04T16:34:32.992Z,57.00
2019-04-04T16:37:04.327Z,57.50
2019-04-04T16:39:35.599Z,58.00
2019-04-04T16:42:06.873Z,57.70
2019-04-04T16:44:38.052Z,58.10
2019-04-04T16:47:09.377Z,59.00
2019-04-04T16:49:42.667Z,58.90
2019-04-04T17:00:29.655Z,61.30
2019-04-04T17:03:00.911Z,62.10
2019-04-04T17:05:32.235Z,62.90
2019-04-04T17:08:03.424Z,63.20
2019-04-04T17:10:34.885Z,64.00
2019-04-04T17:13:06.210Z,63.90
2019-04-04T17:15:37.537Z,64.40
2019-04-04T17:18:08.932Z,64.40
2019-04-04T17:20:40.141Z,65.00
2019-04-04T17:23:11.387Z,65.50
2019-04-04T17:25:42.726Z,65.90
2019-04-04T17:28:14.481Z,67.10
2019-04-04T17:30:46.626Z,68.60
2019-04-04T17:33:19.055Z,68.80
2019-04-04T17:35:50.954Z,69.20
2019-04-04T17:38:22.607Z,70.60
2019-04-04T17:40:55.049Z,71.40
2019-04-04T17:43:26.528Z,72.70
2019-04-04T17:45:57.760Z,74.70
2019-04-04T17:48:31.522Z,75.00
2019-04-04T17:51:01.968Z,75.50
2019-04-04T17:53:33.340Z,77.80
2019-04-04T17:56:05.234Z,77.20
2019-04-04T17:58:36.818Z,77.70
2019-04-04T18:01:09.646Z,79.20
2019-04-04T18:03:41.469Z,79.90
2019-04-04T18:06:12.801Z,80.50
2019-04-04T18:08:44.023Z,83.00
2019-04-04T18:11:15.263Z,82.80
2019-04-04T18:13:47.324Z,82.70
2019-04-04T18:16:18.730Z,83.20
2019-04-04T18:18:50.301Z,86.30
2019-04-04T18:21:21.591Z,85.30
2019-04-04T18:23:53.168Z,84.70
2019-04-04T18:26:24.750Z,85.90
2019-04-04T18:28:56.097Z,85.10
2019-04-04T18:31:27.354Z,85.00
2019-04-04T18:33:58.978Z,84.80
2019-04-04T18:36:30.375Z,83.80
2019-04-04T18:39:02.288Z,84.40
2019-04-04T18:41:34.990Z,85.80
2019-04-04T18:44:06.402Z,85.40
2019-04-04T18:46:38.181Z,86.80
2019-04-04T18:49:11.287Z,86.10
2019-04-04T18:51:43.500Z,85.80
2019-04-04T18:54:15.155Z,85.50
2019-04-04T18:56:46.673Z,88.70
2019-04-04T18:59:18.365Z,86.70
2019-04-04T19:01:50.120Z,89.50
2019-04-04T19:04:21.885Z,87.80
2019-04-04T19:06:53.415Z,89.20
2019-04-04T19:09:24.746Z,90.00
2019-04-04T19:11:56.948Z,89.90
2019-04-04T19:14:28.597Z,90.80
2019-04-04T19:17:00.385Z,91.50
2019-04-04T19:19:32.269Z,93.50
2019-04-04T19:22:03.772Z,94.40
2019-04-04T19:24:35.219Z,94.80
2019-04-04T19:27:06.665Z,95.80
2019-04-04T19:29:38.205Z,96.10
2019-04-04T19:32:09.773Z,96.40
2019-04-04T19:34:43.656Z,96.30
2019-04-04T19:37:14.336Z,96.40
2019-04-04T19:39:45.571Z,94.90
2019-04-04T19:42:17.256Z,94.30
2019-04-04T19:44:53.467Z,93.50
2019-04-04T19:47:22.563Z,92.40
2019-04-04T19:49:54.145Z,92.20
2019-04-04T19:52:25.728Z,92.30
2019-04-04T19:54:57.150Z,92.10
2019-04-04T19:57:29.272Z,92.00
2019-04-04T20:00:00.804Z,91.90
2019-04-04T20:02:32.453Z,91.60
2019-04-04T20:05:05.565Z,90.70
2019-04-04T20:07:37.638Z,90.90
2019-04-04T20:10:10.045Z,91.10
2019-04-04T20:12:41.546Z,91.10
2019-04-04T20:15:13.056Z,90.20
2019-04-04T20:17:44.377Z,89.40
2019-04-04T20:20:16.523Z,89.20
2019-04-04T20:22:48.421Z,89.00
2019-04-04T20:25:19.667Z,88.60
2019-04-04T20:27:55.026Z,90.00
2019-04-04T20:30:36.648Z,90.40
2019-04-04T20:33:08.184Z,91.00
2019-04-04T20:35:39.471Z,92.90
2019-04-04T20:38:10.796Z,93.00
2019-04-04T20:40:42.010Z,94.00
2019-04-04T20:43:13.460Z,94.50
2019-04-04T20:45:44.747Z,94.00
2019-04-04T20:48:15.994Z,95.40
2019-04-04T20:50:47.342Z,95.50
2019-04-04T20:53:18.768Z,95.80
2019-04-04T20:55:50.002Z,96.40
2019-04-04T20:58:21.334Z,96.70
2019-04-04T21:00:52.873Z,97.10
2019-04-04T21:03:24.113Z,96.10
2019-04-04T21:05:55.320Z,96.30
2019-04-04T21:08:26.557Z,96.30
2019-04-04T21:10:57.969Z,96.90
2019-04-04T21:13:29.193Z,97.50
2019-04-04T21:16:00.629Z,96.60
2019-04-04T21:18:32.867Z,96.00
2019-04-04T21:21:04.095Z,96.40
2019-04-04T21:23:35.336Z,97.10
2019-04-04T21:26:06.612Z,96.60
2019-04-04T21:28:38.004Z,96.90
2019-04-04T21:31:09.174Z,96.20
2019-04-04T21:33:40.537Z,96.90
2019-04-04T21:36:11.718Z,97.70
2019-04-04T21:38:42.901Z,98.90
2019-04-04T21:41:14.091Z,99.00
2019-04-04T21:43:45.345Z,99.90
2019-04-04T21:46:16.590Z,99.90
2019-04-04T21:48:47.787Z,99.90
2019-04-04T21:51:18.905Z,99.90
2019-04-04T21:53:50.088Z,99.90
2019-04-04T21:56:21.341Z,99.90
2019-04-04T21:58:52.507Z,99.90
2019-04-04T22:01:23.864Z,99.90
2019-04-04T22:03:56.630Z,99.90
2019-04-04T22:06:27.810Z,99.90
2019-04-04T22:08:59.025Z,99.90
2019-04-04T22:11:30.221Z,99.90
2019-04-04T22:14:01.487Z,99.90
2019-04-04T22:16:32.684Z,99.90
2019-04-04T22:19:03.954Z,99.90
2019-04-04T22:21:35.130Z,99.90
2019-04-04T22:24:06.346Z,99.90
2019-04-04T22:26:37.578Z,99.90
2019-04-04T22:29:08.865Z,99.90
2019-04-04T22:31:40.058Z,99.90
2019-04-04T22:34:11.269Z,99.90
2019-04-04T22:36:42.420Z,99.90
2019-04-04T22:39:13.644Z,99.90
2019-04-04T22:41:44.818Z,99.90
2019-04-04T22:44:16.170Z,99.90
2019-04-04T22:46:47.404Z,99.90
2019-04-04T22:49:18.620Z,99.90
2019-04-04T22:51:49.777Z,99.90
2019-04-04T22:54:20.997Z,99.90
2019-04-04T22:56:52.243Z,99.90
2019-04-04T22:59:23.366Z,99.90
2019-04-04T23:01:54.845Z,99.90
2019-04-04T23:04:25.994Z,99.90
2019-04-04T23:06:57.251Z,99.90
2019-04-04T23:09:28.541Z,99.90
2019-04-04T23:11:59.736Z,99.90
2019-04-04T23:14:30.914Z,99.90
2019-04-04T23:17:02.091Z,99.90
2019-04-04T23:19:33.316Z,99.90
2019-04-04T23:22:04.691Z,99.90
2019-04-04T23:24:35.809Z,99.90
2019-04-04T23:27:06.969Z,99.90
2019-04-04T23:29:38.139Z,99.90
2019-04-04T23:32:09.352Z,99.90
2019-04-04T23:34:40.543Z,99.90
2019-04-04T23:37:11.728Z,99.90
2019-04-04T23:39:43.887Z,99.90
2019-04-04T23:42:16.089Z,99.90
2019-04-04T23:44:59.935Z,99.90
2019-04-04T23:47:20.063Z,99.90
2019-04-04T23:49:51.338Z,99.90
2019-04-04T23:52:22.551Z,99.70
2019-04-04T23:54:53.724Z,99.70
2019-04-04T23:57:36.294Z,99.10
